Schedule Details

Flight Number: CPX783
Departure: Noi Bai International Airport (VVNB) at N/A
Arrival: Incheon International Airport (RKSI) at N/A
Route: BUNBO1A NAKHA R474 LON R474 GYA B330 POU A599 PUD A593 AKARA A326 IKADI A326 MUDAL A591 AGAVO G597 GONAV GONAV2M


Current Weather Information
VVNB 180600Z VRB04KT CAVOK 26/19 Q1009 NOSIG
RKSI 180600Z 30008KT CAVOK 02/M08 Q1025 NOSIG

Route Map